KSYI/SYI METAR and TAF weather

Enter ICAO airport designator
Station Type Date Time Source
KSYI METAR 2019/02/23 00:35 UTC NOAA

KSYI 230035Z AUTO 00000KT 4SM BR FEW022 BKN047 OVC060 11/10 A3018 RMK A01


Station Type Date Time Source
KSYI Decoded METAR 2019/02/23 00:35 UTC NOAA

Station name not available
Feb 22, 2019 - 07:35 PM EST / 2019.02.23 0035 UTC
Wind: Calm:0
Visibility: 4 mile(s):0
Sky conditions: overcast
Weather: mist
Temperature: 51 F (11 C)
Dew Point: 50 F (10 C)
Relative Humidity: 93%
Pressure (altimeter): 30.18 in. Hg (1022 hPa)
ob: KSYI 230035Z AUTO 00000KT 4SM BR FEW022 BKN047 OVC060 11/10 A3018 RMK A01
cycle: 0

Station Type Date Time Source
KSYI TAF UTC NOAA

Error!


Example: see airport list